Flight Track Log - Related Links

Times and Time Zones

All times are in EDT time to prevent confusion due to time zone crossing. See the DAL671 flight status page for this flight to view local times or setup timezone preferences in your user account.

Time Position Orientation Groundspeed Altitude Reporting Facility
EDT Latitude Longitude Course Direction KTS MPH feet Rate Location/Type
Mon 12:05:40 AM 40.8047 -112.0028 328° Northwest 161 185 4,700  Level Salt Lake Center
Mon 12:06:47 AM 40.8414 -112.0583 311° West 208 239 6,200 1,290 Climbing Salt Lake Center
Mon 12:07:13 AM 40.8531 -112.0953 293° West 230 265 6,700 2,262 Climbing Salt Lake Center
Mon 12:07:48 AM 40.8697 -112.1478 293° West 263 303 8,500 2,951 Climbing Salt Lake Center
Mon 12:08:14 AM 40.8833 -112.1850 296° West 264 304 9,700 2,690 Climbing Salt Lake Center
Mon 12:09:00 AM 40.9683 -112.3758 339° North  Level FlightAware Approximate
Mon 12:09:15 AM 40.9267 -112.2636 306° West 272 313 12,400  Level Salt Lake Center
Mon 12:10:00 AM 41.0782 -112.4263 328° Northwest  Level FlightAware Approximate
Mon 12:10:16 AM 40.9919 -112.3314 322° Northwest 304 350 13,800  Level Salt Lake Center
Mon 12:11:17 AM 41.0644 -112.4164 319° Northwest 347 399 16,200 2,066 Climbing Salt Lake Center
Mon 12:12:18 AM 41.1464 -112.4889 326° Northwest 356 410 18,000 2,016 Climbing Salt Lake Center
Mon 12:13:19 AM 41.2353 -112.5508 332° Northwest 361 415 20,300 1,672 Climbing Salt Lake Center
Mon 12:14:20 AM 41.3294 -112.6175 332° Northwest 386 444 21,400 1,377 Climbing Salt Lake Center
Mon 12:15:21 AM 41.4286 -112.6894 331° Northwest 405 466 23,100 2,066 Climbing Salt Lake Center
Mon 12:16:22 AM 41.5283 -112.7597 332° Northwest 401 461 25,600 1,869 Climbing Salt Lake Center
Mon 12:17:23 AM 41.6225 -112.8289 331° Northwest 390 449 26,900 1,279 Climbing Salt Lake Center
Mon 12:18:24 AM 41.7236 -112.9006 332° Northwest 405 466 28,200 1,180 Climbing Salt Lake Center
Mon 12:19:25 AM 41.8256 -112.9744 332° Northwest 415 478 29,300 1,033 Climbing Salt Lake Center
Mon 12:20:26 AM 41.9294 -113.0489 332° Northwest 423 487 30,300 1,230 Climbing Salt Lake Center
Mon 12:21:27 AM 42.0558 -113.1414 331° Northwest 430 495 31,800 1,230 Climbing Salt Lake Center
Mon 12:22:28 AM 42.1603 -113.2169 332° Northwest 427 491 32,800 984 Climbing Salt Lake Center
Mon 12:23:29 AM 42.2658 -113.2950 331° Northwest 432 497 33,800 984 Climbing Salt Lake Center
Mon 12:24:30 AM 42.3708 -113.3719 332° Northwest 431 496 34,800 885 Climbing Salt Lake Center
Mon 12:25:31 AM 42.4747 -113.4472 332° Northwest 425 489 35,600 585 Climbing Salt Lake Center
Mon 12:26:33 AM 42.5789 -113.5258 331° Northwest 429 494 36,000 195 Climbing Salt Lake Center
Mon 12:27:34 AM 42.6844 -113.6039 331° Northwest 437 503 36,000  Level Salt Lake Center
Mon 12:28:35 AM 42.8039 -113.6933 331° Northwest 439 505 36,000  Level Salt Lake Center
Mon 12:29:36 AM 42.9069 -113.7706 331° Northwest 441 507 36,000  Level Salt Lake Center
Mon 12:30:37 AM 43.0233 -113.8583 331° Northwest 438 504 36,000  Level Salt Lake Center
Mon 12:31:38 AM 43.1108 -113.9292 329° Northwest 437 503 36,000 295 Level Salt Lake Center
Mon 12:32:39 AM 43.2261 -114.0144 332° Northwest 441 507 36,600 787 Climbing Salt Lake Center
Mon 12:33:40 AM 43.3431 -114.1039 331° Northwest 430 495 37,600 689 Climbing Salt Lake Center
Mon 12:34:41 AM 43.4406 -114.1792 331° Northwest 420 483 38,000 197 Climbing Salt Lake Center
Mon 12:35:42 AM 43.5397 -114.2556 331° Northwest 426 490 38,000  Level Salt Lake Center
Mon 12:36:43 AM 43.6589 -114.3467 331° Northwest 438 504 38,000  Level Salt Lake Center
Mon 12:37:44 AM 43.7622 -114.4272 331° Northwest 444 511 38,000  Level Salt Lake Center
Mon 12:38:45 AM 43.8811 -114.5200 331° Northwest 441 507 38,000  Level Salt Lake Center
Mon 12:39:46 AM 43.9833 -114.5989 331° Northwest 439 505 38,000  Level Salt Lake Center
Mon 12:40:47 AM 44.0844 -114.6769 331° Northwest 436 502 38,000  Level Salt Lake Center
Mon 12:41:48 AM 44.2019 -114.7697 330° Northwest 436 502 38,000  Level Salt Lake Center
Mon 12:42:50 AM 44.3031 -114.8506 330° Northwest 438 504 38,000  Level Salt Lake Center
Mon 12:43:51 AM 44.4031 -114.9308 330° Northwest 437 503 38,000  Level Salt Lake Center
Mon 12:44:52 AM 44.5225 -115.0256 331° Northwest 441 507 38,000  Level Salt Lake Center
Mon 12:45:53 AM 44.6233 -115.1058 330° Northwest 439 505 38,000  Level Salt Lake Center
Mon 12:46:54 AM 44.7417 -115.2019 330° Northwest 440 506 38,000  Level Salt Lake Center
Mon 12:47:55 AM 44.8431 -115.2847 330° Northwest 442 509 38,000  Level Salt Lake Center
Mon 12:48:56 AM 44.9453 -115.3669 330° Northwest 443 510 38,000  Level Salt Lake Center
Mon 12:49:56 AM 45.0644 -115.4644 330° Northwest 445 512 38,000  Level Salt Lake Center
Mon 12:50:57 AM 45.1661 -115.5475 330° Northwest 442 509 38,000  Level Salt Lake Center
Mon 12:51:58 AM 45.2850 -115.6469 330° Northwest 444 511 38,000  Level Salt Lake Center
Mon 12:52:14 AM 45.3025 -115.6614 330° Northwest 442 509 38,000  Level Seattle Center
Mon 12:53:15 AM 45.4203 -115.7611 329° Northwest 442 509 38,000  Level Seattle Center
Mon 12:54:15 AM 45.5219 -115.8453 330° Northwest 441 507 38,000  Level Seattle Center
Mon 12:55:01 AM 45.6064 -115.9169 329° Northwest 443 510 38,000 56 Level Salt Lake Center
Mon 12:56:02 AM 45.7086 -116.0028 330° Northwest 444 511 38,100  Climbing Salt Lake Center
Mon 12:56:17 AM 45.7361 -116.0269 328° Northwest 445 512 38,000 -80 Descending Seattle Center
Mon 12:57:17 AM 45.8428 -116.1150 330° Northwest 442 509 38,000 -50 Level Seattle Center
Mon 12:58:18 AM 45.9475 -116.2047 329° Northwest 441 507 37,900 -50 Descending Seattle Center
Mon 12:59:18 AM 46.0525 -116.2981 328° Northwest 444 511 37,900 49 Level Seattle Center
Mon 01:00:21 AM 46.1578 -116.3889 329° Northwest 442 509 38,000 -439 Climbing Seattle Center
Mon 01:01:21 AM 46.2636 -116.4769 330° Northwest 441 507 37,000 -2,331 Descending Seattle Center
Mon 01:02:22 AM 46.3747 -116.5606 333° Northwest 449 517 33,300 -3,521 Descending Seattle Center
Mon 01:03:22 AM 46.4947 -116.6350 337° Northwest 468 539 29,900 -3,273 Descending Seattle Center
Mon 01:04:23 AM 46.6100 -116.7106 336° Northwest 460 529 26,700 -3,344 Descending Seattle Center
Mon 01:05:24 AM 46.7247 -116.7853 336° Northwest 453 521 23,100 -3,322 Descending Seattle Center
Mon 01:06:24 AM 46.8353 -116.8578 336° Northwest 441 507 20,000 -2,975 Descending Seattle Center
Mon 01:07:25 AM 46.9408 -116.9294 335° Northwest 422 486 17,100 -2,826 Descending Seattle Center
Mon 01:08:25 AM 47.0467 -116.9919 338° Northwest 413 475 14,300 -1,884 Descending Seattle Center
Mon 01:09:26 AM 47.1392 -117.0611 333° Northwest 375 432 13,300 -1,131 Descending Seattle Center
Mon 01:10:27 AM 47.2211 -117.1161 335° Northwest 324 373 12,000 -1,537 Descending Seattle Center
Mon 01:11:27 AM 47.3108 -117.1747 336° Northwest 309 356 10,200 -1,587 Descending Seattle Center
Mon 01:12:28 AM 47.3900 -117.2292 335° Northwest 293 337 8,800 -992 Descending Seattle Center
Mon 01:13:28 AM 47.4564 -117.2747 335° Northwest 263 303 8,200 -793 Descending Seattle Center
Mon 01:14:29 AM 47.5036 -117.3072 335° Northwest 238 274 7,200 -843 Descending Seattle Center
Mon 01:15:29 AM 47.5586 -117.3433 336° Northwest 216 249 6,500 -942 Descending Seattle Center
Mon 01:16:30 AM 47.6144 -117.3581 350° North 204 235 5,300 -1,131 Descending Seattle Center
Mon 01:17:31 AM 47.6622 -117.3819 341° North 179 206 4,200 -744 Descending Seattle Center
Mon 01:18:31 AM 47.6794 -117.4369 295° West 150 173 3,800 -645 Descending Seattle Center
Mon 01:19:32 AM 47.6508 -117.4894 231° Southwest 141 162 2,900 -744 Descending Seattle Center
Mon 01:20:32 AM 47.6242 -117.5289 225° Southwest 137 158 2,300 -298 Descending Seattle Center
Mon 01:21:33 AM 47.6178 -117.5411 232° Southwest 78 90 2,300  Level Seattle Center

Login

Don't have an account? Register now (free) for customized features, flight alerts, and more!